createdAt,value
2024-03-05T00:00:29.653Z,99989.19
2024-03-05T00:02:56.547Z,99980.38
2024-03-05T00:05:23.540Z,99983.94
2024-03-05T00:07:50.549Z,99980.69
2024-03-05T00:10:17.962Z,99994.84
2024-03-05T00:12:44.962Z,99983.09
2024-03-05T00:15:11.874Z,100009.31
2024-03-05T00:17:38.959Z,100013.88
2024-03-05T00:20:06.447Z,99980.69
2024-03-05T00:22:33.600Z,99995.25
2024-03-05T00:25:00.786Z,100011.81
2024-03-05T00:27:27.803Z,99982.47
2024-03-05T00:29:54.769Z,99995.50
2024-03-05T00:32:21.695Z,100017.53
2024-03-05T00:34:48.677Z,99984.81
2024-03-05T00:37:15.645Z,99992.81
2024-03-05T00:39:42.686Z,100002.78
2024-03-05T00:42:09.969Z,99962.97
2024-03-05T00:44:36.935Z,99960.28
2024-03-05T00:47:04.253Z,99988.53
2024-03-05T00:49:33.528Z,99978.75
2024-03-05T00:52:00.465Z,99965.66
2024-03-05T00:54:27.487Z,99962.22
2024-03-05T00:56:54.373Z,99963.63
2024-03-05T00:59:21.264Z,99956.84
2024-03-05T01:01:48.313Z,99966.78
2024-03-05T01:04:15.434Z,99995.59
2024-03-05T01:06:45.588Z,99960.50
2024-03-05T01:09:12.731Z,99952.06
2024-03-05T01:11:39.756Z,99960.59
2024-03-05T01:14:06.960Z,99936.47
2024-03-05T01:16:34.004Z,99933.69
2024-03-05T01:19:00.896Z,99944.31
2024-03-05T01:21:27.776Z,99959.16
2024-03-05T01:23:54.799Z,99926.25
2024-03-05T01:26:21.701Z,99948.72
2024-03-05T01:28:48.700Z,99935.91
2024-03-05T01:31:15.743Z,99936.47
2024-03-05T01:33:42.700Z,99925.38
2024-03-05T01:36:09.621Z,99944.22
2024-03-05T01:38:36.550Z,99928.94
2024-03-05T01:41:03.697Z,99937.44
2024-03-05T01:43:30.612Z,99911.72
2024-03-05T01:45:57.907Z,99948.63
2024-03-05T01:48:24.962Z,99975.78
2024-03-05T01:50:52.220Z,99945.69
2024-03-05T01:53:20.192Z,99941.09
2024-03-05T01:55:48.326Z,99940.13
2024-03-05T01:58:16.837Z,99920.50
2024-03-05T02:00:44.242Z,99956.25
2024-03-05T02:03:11.791Z,99953.50
2024-03-05T02:05:44.222Z,99936.94
2024-03-05T02:08:12.588Z,99951.66
2024-03-05T02:10:41.229Z,99951.94
2024-03-05T02:13:10.215Z,99932.25
2024-03-05T02:15:37.279Z,99935.38
2024-03-05T02:18:04.775Z,99928.91
2024-03-05T02:20:31.756Z,99960.25
2024-03-05T02:22:58.733Z,99941.13
2024-03-05T02:25:25.624Z,99983.09
2024-03-05T02:27:53.795Z,99923.13
2024-03-05T02:30:21.007Z,99936.22
2024-03-05T02:32:48.213Z,99926.75
2024-03-05T02:35:15.270Z,99937.50
2024-03-05T02:37:42.873Z,99947.38
2024-03-05T02:40:13.642Z,99925.63
2024-03-05T02:42:40.914Z,99925.34
2024-03-05T02:45:09.054Z,99944.16
2024-03-05T02:47:36.637Z,99944.81
2024-03-05T02:50:04.958Z,99941.75
2024-03-05T02:52:32.053Z,99932.06
2024-03-05T02:54:59.375Z,99924.56
2024-03-05T02:57:26.419Z,99918.09
2024-03-05T02:59:53.341Z,99915.75
2024-03-05T03:02:20.531Z,99918.19
2024-03-05T03:04:47.962Z,99893.31
2024-03-05T03:07:15.019Z,99914.31
2024-03-05T03:09:46.250Z,99895.69
2024-03-05T03:12:13.488Z,99888.88
2024-03-05T03:14:44.828Z,99922.88
2024-03-05T03:17:13.323Z,99898.97
2024-03-05T03:19:46.566Z,99875.00
2024-03-05T03:22:13.663Z,99872.69
2024-03-05T03:24:40.871Z,99874.19
2024-03-05T03:27:07.981Z,99886.13
2024-03-05T03:29:34.932Z,99860.56
2024-03-05T03:32:01.934Z,99850.59
2024-03-05T03:34:29.113Z,99863.03
2024-03-05T03:36:56.122Z,99857.84
2024-03-05T03:39:23.113Z,99865.69
2024-03-05T03:41:59.074Z,99864.28
2024-03-05T03:44:26.148Z,99856.38
2024-03-05T03:46:53.319Z,99843.13
2024-03-05T03:49:22.619Z,99871.28
2024-03-05T03:51:49.646Z,99863.38
2024-03-05T03:54:16.841Z,99844.28
2024-03-05T03:56:43.808Z,99836.06
2024-03-05T03:59:10.783Z,99848.63
2024-03-05T04:01:37.775Z,99835.13
2024-03-05T04:04:04.921Z,99862.50
2024-03-05T04:06:34.613Z,99852.75
2024-03-05T04:09:01.667Z,99848.81
2024-03-05T04:11:28.646Z,99844.91
2024-03-05T04:13:55.786Z,99841.38
2024-03-05T04:16:22.824Z,99859.97
2024-03-05T04:18:49.857Z,99841.69
2024-03-05T04:21:16.747Z,99847.03
2024-03-05T04:23:44.019Z,99861.72
2024-03-05T04:26:11.097Z,99844.38
2024-03-05T04:28:45.806Z,99826.25
2024-03-05T04:31:13.602Z,99866.13
2024-03-05T04:33:40.618Z,99859.59
2024-03-05T04:36:07.862Z,99853.41
2024-03-05T04:38:34.804Z,99844.56
2024-03-05T04:41:01.902Z,99853.66
2024-03-05T04:43:28.907Z,99841.03
2024-03-05T04:45:55.924Z,99850.22
2024-03-05T04:48:22.843Z,99849.88
2024-03-05T04:50:51.420Z,99856.06
2024-03-05T04:53:18.549Z,99835.69
2024-03-05T04:55:45.744Z,99845.31
2024-03-05T04:58:12.947Z,99845.78
2024-03-05T05:00:40.257Z,99866.84
2024-03-05T05:03:07.351Z,99827.34
2024-03-05T05:05:34.408Z,99856.34
2024-03-05T05:08:01.891Z,99981.97
2024-03-05T05:10:29.124Z,99873.91
2024-03-05T05:12:56.174Z,99858.03
2024-03-05T05:15:23.955Z,99857.75
2024-03-05T05:17:51.011Z,99849.53
2024-03-05T05:20:19.839Z,99846.47
2024-03-05T05:22:46.926Z,99860.78
2024-03-05T05:25:15.020Z,99873.78
2024-03-05T05:27:42.380Z,99846.63
2024-03-05T05:30:14.153Z,99856.22
2024-03-05T05:32:42.049Z,99865.22
2024-03-05T05:35:09.911Z,99848.16
2024-03-05T05:38:43.650Z,99850.72
2024-03-05T05:41:11.223Z,99849.06
2024-03-05T05:43:38.747Z,99848.75
2024-03-05T05:46:05.999Z,99853.03
2024-03-05T05:48:33.592Z,99846.16
2024-03-05T05:51:00.666Z,99822.81
2024-03-05T05:53:28.136Z,99837.75
2024-03-05T05:55:55.234Z,99836.22
2024-03-05T05:58:22.231Z,99819.16
2024-03-05T06:00:49.472Z,99811.81
2024-03-05T06:03:16.370Z,99812.72
2024-03-05T06:05:43.580Z,99837.59
2024-03-05T06:08:10.572Z,99828.94
2024-03-05T06:10:38.625Z,99841.09
2024-03-05T06:13:05.526Z,99833.19
2024-03-05T06:15:32.592Z,99848.44
2024-03-05T06:17:59.908Z,99818.81
2024-03-05T06:20:27.448Z,99822.41
2024-03-05T06:22:54.342Z,99798.47
2024-03-05T06:25:21.510Z,99820.00
2024-03-05T06:27:48.457Z,99838.31
2024-03-05T06:30:16.021Z,99822.38
2024-03-05T06:32:44.157Z,99809.81
2024-03-05T06:35:11.259Z,99835.53
2024-03-05T06:37:41.940Z,99825.66
2024-03-05T06:40:10.093Z,99845.25
2024-03-05T06:42:41.566Z,99816.53
2024-03-05T06:45:10.162Z,99830.44
2024-03-05T06:47:37.383Z,99843.38
2024-03-05T06:50:04.672Z,99803.91
2024-03-05T06:52:31.726Z,99823.28
2024-03-05T06:54:58.750Z,99837.97
2024-03-05T06:57:25.720Z,99853.09
2024-03-05T06:59:52.800Z,99826.94
2024-03-05T07:02:19.857Z,99844.50
2024-03-05T07:04:47.283Z,99843.53
2024-03-05T07:07:14.239Z,99833.34
2024-03-05T07:09:42.121Z,99838.44
2024-03-05T07:12:09.136Z,99847.50
2024-03-05T07:14:36.224Z,99813.94
2024-03-05T07:17:03.300Z,99842.00
2024-03-05T07:19:30.333Z,99832.06
2024-03-05T07:21:57.309Z,99841.06
2024-03-05T07:24:24.324Z,99762.59
2024-03-05T07:26:56.995Z,99826.88
2024-03-05T07:29:31.607Z,99847.91
2024-03-05T07:31:58.546Z,99832.16
2024-03-05T07:34:25.695Z,99827.50
2024-03-05T07:36:52.743Z,99821.19
2024-03-05T07:57:09.864Z,99806.13
2024-03-05T07:59:36.875Z,99826.47
2024-03-05T08:02:04.016Z,99814.81
2024-03-05T08:04:31.065Z,99792.81
2024-03-05T08:06:58.778Z,99795.28
2024-03-05T08:09:25.850Z,99789.22
2024-03-05T08:11:52.829Z,99823.41
2024-03-05T08:14:19.861Z,99787.72
2024-03-05T08:16:46.849Z,99815.50
2024-03-05T08:19:13.937Z,99784.03
2024-03-05T08:21:40.864Z,99828.16
2024-03-05T08:24:08.049Z,99831.34
2024-03-05T08:26:35.096Z,99800.91
2024-03-05T08:29:03.616Z,99807.56
2024-03-05T08:31:30.666Z,99808.88
2024-03-05T08:33:57.741Z,99812.66
2024-03-05T08:36:24.692Z,99803.44
2024-03-05T08:38:51.793Z,99804.72
2024-03-05T08:41:18.741Z,99818.06
2024-03-05T08:43:45.793Z,99811.78
2024-03-05T08:46:12.910Z,99788.72
2024-03-05T08:48:40.020Z,99813.25
2024-03-05T08:51:06.957Z,99816.28
2024-03-05T08:53:33.891Z,99820.91
2024-03-05T08:56:00.967Z,99794.75
2024-03-05T08:58:28.178Z,99798.56
2024-03-05T09:00:55.443Z,99804.38
2024-03-05T09:03:22.487Z,99793.34
2024-03-05T09:05:49.474Z,99773.78
2024-03-05T09:08:16.623Z,99789.59
2024-03-05T09:10:43.621Z,99796.22
2024-03-05T09:13:10.571Z,99793.44
2024-03-05T09:15:41.717Z,99803.91
2024-03-05T09:18:10.811Z,99771.63
2024-03-05T09:20:37.769Z,99784.44
2024-03-05T09:23:05.074Z,99750.78
2024-03-05T09:25:32.085Z,99782.06
2024-03-05T09:27:59.166Z,99771.41
2024-03-05T09:30:26.077Z,99776.97
2024-03-05T09:32:53.504Z,99784.97
2024-03-05T09:35:20.541Z,99786.41
2024-03-05T09:37:47.555Z,99766.81
2024-03-05T09:40:15.258Z,99773.91
2024-03-05T09:42:42.266Z,99761.72
2024-03-05T09:45:14.835Z,99800.88
2024-03-05T09:47:42.470Z,99755.72
2024-03-05T09:50:13.017Z,99765.16
2024-03-05T09:52:40.371Z,99769.13
2024-03-05T09:55:07.828Z,99765.63
2024-03-05T09:57:35.856Z,99765.28
2024-03-05T10:00:03.013Z,99786.47
2024-03-05T10:02:39.834Z,99764.66
2024-03-05T10:05:09.774Z,99787.84
2024-03-05T10:07:36.779Z,99766.78
2024-03-05T10:10:07.902Z,99760.19
2024-03-05T10:12:35.350Z,99753.97
2024-03-05T10:15:19.143Z,99763.25
2024-03-05T10:17:48.515Z,99746.16
2024-03-05T10:20:25.307Z,99740.16
2024-03-05T10:22:53.000Z,99750.50
2024-03-05T10:25:20.341Z,99765.72
2024-03-05T10:27:48.544Z,99746.34
2024-03-05T10:30:29.677Z,99737.38
2024-03-05T10:32:59.815Z,99725.81
2024-03-05T10:35:28.220Z,99728.78
2024-03-05T10:38:03.889Z,99756.66
2024-03-05T10:40:32.407Z,99738.47
2024-03-05T10:43:01.228Z,99741.50
2024-03-05T10:45:28.576Z,99739.09
2024-03-05T10:47:57.014Z,99734.88
2024-03-05T10:50:25.581Z,99746.00
2024-03-05T10:52:57.096Z,99750.56
2024-03-05T10:55:25.253Z,99744.38
2024-03-05T10:57:53.621Z,99755.25
2024-03-05T11:00:20.822Z,99725.31
2024-03-05T11:02:48.601Z,99730.97
2024-03-05T11:05:17.717Z,99748.00
2024-03-05T11:07:45.368Z,99735.28
2024-03-05T11:10:12.407Z,99730.41
2024-03-05T11:12:40.312Z,99766.78
2024-03-05T11:15:08.273Z,99739.41
2024-03-05T11:17:35.913Z,99719.19
2024-03-05T11:20:03.114Z,99730.03
2024-03-05T11:22:30.163Z,99734.69
2024-03-05T11:25:05.786Z,99708.25
2024-03-05T11:27:35.041Z,99746.56
2024-03-05T11:30:11.511Z,99719.44
2024-03-05T11:32:39.777Z,99733.75
2024-03-05T11:35:10.353Z,99717.75
2024-03-05T11:37:47.962Z,99737.97
2024-03-05T11:40:17.782Z,99730.31
2024-03-05T11:42:46.096Z,99719.13
2024-03-05T11:45:48.765Z,99732.63
2024-03-05T11:48:17.914Z,99716.84
2024-03-05T11:50:45.777Z,99711.34
2024-03-05T11:53:13.518Z,99719.78
2024-03-05T11:55:40.866Z,99726.19
2024-03-05T11:58:08.049Z,99723.41
2024-03-05T12:00:35.721Z,99711.09
2024-03-05T12:03:03.347Z,99729.03
2024-03-05T12:05:31.159Z,99728.44
2024-03-05T12:08:03.013Z,99738.00
2024-03-05T12:10:32.214Z,99729.56
2024-03-05T12:13:00.122Z,99718.34
2024-03-05T12:15:33.340Z,99705.84
2024-03-05T12:18:05.602Z,99721.69
2024-03-05T12:20:32.681Z,99721.25
2024-03-05T12:22:59.649Z,99725.53
2024-03-05T12:25:30.081Z,99728.03
2024-03-05T12:27:57.219Z,99720.88
2024-03-05T12:30:25.629Z,99729.31
2024-03-05T12:32:55.323Z,99759.13
2024-03-05T12:35:22.342Z,99713.94
2024-03-05T12:37:51.115Z,99717.06
2024-03-05T12:40:22.859Z,99742.06
2024-03-05T12:42:50.704Z,99726.81
2024-03-05T12:45:19.148Z,99735.63
2024-03-05T12:48:00.649Z,99722.28
2024-03-05T12:50:30.856Z,99735.50
2024-03-05T12:53:05.003Z,99728.06
2024-03-05T12:55:32.910Z,99722.53
2024-03-05T12:58:10.578Z,99733.81
2024-03-05T13:00:37.915Z,99717.66
2024-03-05T13:03:06.197Z,99725.19
2024-03-05T13:05:38.237Z,99700.19
2024-03-05T13:08:06.553Z,99719.31
2024-03-05T13:10:34.780Z,99739.91
2024-03-05T13:13:02.027Z,99726.03
2024-03-05T13:15:28.950Z,99750.44
2024-03-05T13:17:55.973Z,99719.75
2024-03-05T13:20:23.080Z,99755.16
2024-03-05T13:22:52.452Z,99716.22
2024-03-05T13:25:20.556Z,99727.03
2024-03-05T13:27:48.501Z,99728.91
2024-03-05T13:30:16.977Z,99752.66
2024-03-05T13:32:51.426Z,99723.81
2024-03-05T13:35:19.501Z,99744.94
2024-03-05T13:37:46.917Z,99743.81
2024-03-05T13:40:15.014Z,99776.69
2024-03-05T13:42:42.025Z,99742.53
2024-03-05T13:45:09.398Z,99728.25
2024-03-05T13:47:36.431Z,99736.16
2024-03-05T13:50:03.729Z,99760.13
2024-03-05T13:52:30.816Z,99764.44
2024-03-05T13:54:57.942Z,99741.97
2024-03-05T13:57:24.818Z,99746.22
2024-03-05T13:59:51.750Z,99751.72
2024-03-05T14:02:18.773Z,99729.19
2024-03-05T14:04:45.850Z,99729.88
2024-03-05T14:07:12.822Z,99718.09
2024-03-05T14:09:39.858Z,99728.84
2024-03-05T14:12:07.330Z,99735.25
2024-03-05T14:14:34.625Z,99738.13
2024-03-05T14:17:01.677Z,99751.91
2024-03-05T14:19:28.912Z,99738.97
2024-03-05T14:21:55.848Z,99740.81
2024-03-05T14:24:22.911Z,99728.25
2024-03-05T14:26:49.853Z,99752.09
2024-03-05T14:29:16.858Z,99744.44
2024-03-05T14:31:43.785Z,99766.34
2024-03-05T14:34:10.831Z,99726.22
2024-03-05T14:36:37.770Z,99784.13
2024-03-05T14:39:04.961Z,99745.66
2024-03-05T14:41:31.904Z,99748.91
2024-03-05T14:43:59.032Z,99753.09
2024-03-05T14:46:26.299Z,99774.28
2024-03-05T14:48:53.304Z,99729.09
2024-03-05T14:51:21.566Z,99747.19
2024-03-05T14:53:48.607Z,99763.66
2024-03-05T14:56:15.594Z,99778.16
2024-03-05T14:58:42.689Z,99751.94
2024-03-05T15:01:09.842Z,99780.25
2024-03-05T15:03:36.888Z,99793.06
2024-03-05T15:06:04.894Z,99779.81
2024-03-05T15:08:32.116Z,99775.97
2024-03-05T15:10:59.266Z,99780.41
2024-03-05T15:13:26.324Z,99775.56
2024-03-05T15:15:53.280Z,99794.03
2024-03-05T15:18:20.755Z,99797.22
2024-03-05T15:20:47.750Z,99769.16
2024-03-05T15:23:14.978Z,99790.94
2024-03-05T15:25:42.124Z,99786.56
2024-03-05T15:28:09.425Z,99781.66
2024-03-05T15:30:36.797Z,99758.00
2024-03-05T15:33:05.567Z,99802.41
2024-03-05T15:35:33.416Z,99794.31
2024-03-05T15:38:00.972Z,99792.03
2024-03-05T15:40:28.381Z,99806.97
2024-03-05T15:42:56.775Z,99820.53
2024-03-05T15:45:27.554Z,99833.28
2024-03-05T15:47:55.078Z,99799.13
2024-03-05T15:50:25.110Z,99780.06
2024-03-05T15:52:54.412Z,99807.06
2024-03-05T15:55:24.067Z,99803.88
2024-03-05T15:57:52.241Z,99783.91
2024-03-05T16:00:20.105Z,99791.25
2024-03-05T16:02:47.145Z,99804.81
2024-03-05T16:05:23.499Z,99792.00
2024-03-05T16:07:56.740Z,99814.53
2024-03-05T16:10:24.086Z,99814.41
2024-03-05T16:12:51.216Z,99798.69
2024-03-05T16:15:19.238Z,99788.63
2024-03-05T16:17:46.879Z,99801.25
2024-03-05T16:20:14.469Z,99796.06
2024-03-05T16:22:44.564Z,99789.84
2024-03-05T16:25:12.662Z,99792.13
2024-03-05T16:27:41.052Z,99783.50
2024-03-05T16:30:09.755Z,99802.63
2024-03-05T16:32:36.895Z,99800.97
2024-03-05T16:35:04.195Z,99783.97
2024-03-05T16:37:31.931Z,99787.53
2024-03-05T16:39:59.876Z,99775.31
2024-03-05T16:42:26.809Z,99771.88
2024-03-05T16:44:57.329Z,99791.66
2024-03-05T16:47:24.270Z,99774.78
2024-03-05T16:49:51.267Z,99820.34
2024-03-05T16:52:18.243Z,99776.00
2024-03-05T16:54:45.423Z,99758.28
2024-03-05T16:57:12.392Z,99787.75
2024-03-05T16:59:39.344Z,99787.78
2024-03-05T17:02:06.296Z,99761.81
2024-03-05T17:04:35.550Z,99797.59
2024-03-05T17:07:02.561Z,99812.69
2024-03-05T17:09:30.074Z,99793.28
2024-03-05T17:11:59.994Z,99795.75
2024-03-05T17:14:27.914Z,99797.78
2024-03-05T17:16:55.178Z,99808.78
2024-03-05T17:19:22.296Z,99803.44
2024-03-05T17:21:49.308Z,99810.38
2024-03-05T17:24:16.494Z,99803.66
2024-03-05T17:26:43.731Z,99807.06
2024-03-05T17:29:12.334Z,99813.94
2024-03-05T17:31:39.769Z,99821.31
2024-03-05T17:34:06.681Z,99816.41
2024-03-05T17:36:34.056Z,99830.94
2024-03-05T17:39:00.997Z,99806.63
2024-03-05T17:41:28.080Z,99832.78
2024-03-05T17:43:56.160Z,99826.75
2024-03-05T17:46:23.238Z,99830.59
2024-03-05T17:48:50.318Z,99833.66
2024-03-05T17:51:18.121Z,99833.28
2024-03-05T17:53:46.173Z,99825.63
2024-03-05T17:56:13.920Z,99830.69
2024-03-05T17:58:42.361Z,99817.13
2024-03-05T18:01:10.241Z,99806.34
2024-03-05T18:03:37.357Z,99831.66
2024-03-05T18:06:04.858Z,99838.47
2024-03-05T18:08:31.824Z,99802.91
2024-03-05T18:11:00.181Z,99846.13
2024-03-05T18:13:27.425Z,99845.38
2024-03-05T18:15:54.452Z,99826.78
2024-03-05T18:18:21.758Z,99826.13
2024-03-05T18:20:48.829Z,99817.63
2024-03-05T18:23:15.951Z,99829.88
2024-03-05T18:25:43.085Z,99833.13
2024-03-05T18:28:10.186Z,99839.06
2024-03-05T18:30:37.416Z,99837.44
2024-03-05T18:33:06.293Z,99814.56
2024-03-05T18:35:36.243Z,99814.47
2024-03-05T18:38:04.834Z,99817.88
2024-03-05T18:40:37.158Z,99834.22
2024-03-05T18:43:04.259Z,99826.88
2024-03-05T18:45:31.351Z,99850.88
2024-03-05T18:48:03.452Z,99839.97
2024-03-05T18:50:36.531Z,99847.53
2024-03-05T18:53:05.898Z,99848.97
2024-03-05T18:55:34.492Z,99830.34
2024-03-05T18:58:01.480Z,99836.72
2024-03-05T19:00:30.873Z,99804.22
2024-03-05T19:02:57.944Z,99839.13
2024-03-05T19:05:25.105Z,99832.63
2024-03-05T19:07:52.151Z,99843.06
2024-03-05T19:10:20.251Z,99859.94
2024-03-05T19:12:48.188Z,99851.78
2024-03-05T19:15:15.918Z,99850.31
2024-03-05T19:17:43.152Z,99847.34
2024-03-05T19:20:10.711Z,99864.59
2024-03-05T19:22:39.329Z,99835.19
2024-03-05T19:25:07.921Z,99839.91
2024-03-05T19:27:35.247Z,99839.09
2024-03-05T19:30:02.412Z,99867.06
2024-03-05T19:32:29.499Z,99821.34
2024-03-05T19:34:56.606Z,99840.19
2024-03-05T19:37:23.719Z,99836.38
2024-03-05T19:39:50.782Z,99850.34
2024-03-05T19:42:17.844Z,99853.56
2024-03-05T19:44:47.291Z,99829.38
2024-03-05T19:47:14.418Z,99830.34
2024-03-05T19:49:41.476Z,99832.16
2024-03-05T19:52:09.509Z,99830.72
2024-03-05T19:54:36.431Z,99849.94
2024-03-05T19:57:03.398Z,99843.63
2024-03-05T19:59:30.551Z,99843.13
2024-03-05T20:01:57.732Z,99848.31
2024-03-05T20:04:24.857Z,99844.22
2024-03-05T20:06:51.769Z,99830.91
2024-03-05T20:09:18.819Z,99851.84
2024-03-05T20:11:45.904Z,99853.34
2024-03-05T20:14:12.936Z,99838.16
2024-03-05T20:16:40.072Z,99834.13
2024-03-05T20:19:07.418Z,99857.47
2024-03-05T20:21:34.574Z,99845.66
2024-03-05T20:24:01.448Z,99832.91
2024-03-05T20:26:28.381Z,99843.41
2024-03-05T20:28:55.423Z,99836.34
2024-03-05T20:31:22.420Z,99814.69
2024-03-05T20:33:49.740Z,99839.53
2024-03-05T20:36:16.903Z,99847.78
2024-03-05T20:38:43.941Z,99820.66
2024-03-05T20:41:11.045Z,99843.56
2024-03-05T20:43:38.109Z,99853.75
2024-03-05T20:46:05.126Z,99847.63
2024-03-05T20:48:32.318Z,99838.16
2024-03-05T20:50:59.390Z,99824.91
2024-03-05T20:53:26.343Z,99818.50
2024-03-05T20:55:53.300Z,99829.69
2024-03-05T20:58:20.332Z,99805.84
2024-03-05T21:00:47.519Z,99828.38
2024-03-05T21:03:14.520Z,99842.16
2024-03-05T21:05:41.773Z,99837.50
2024-03-05T21:08:08.810Z,99863.53
2024-03-05T21:10:36.185Z,99841.00
2024-03-05T21:13:03.268Z,99841.19
2024-03-05T21:15:30.306Z,99824.69
2024-03-05T21:17:57.331Z,99825.13
2024-03-05T21:20:24.418Z,99847.28
2024-03-05T21:22:51.561Z,99818.59
2024-03-05T21:25:18.663Z,99834.81
2024-03-05T21:27:45.674Z,99844.53
2024-03-05T21:30:13.129Z,99845.34
2024-03-05T21:32:40.679Z,99817.69
2024-03-05T21:35:08.153Z,99818.38
2024-03-05T21:37:35.661Z,99809.72
2024-03-05T21:40:02.986Z,99846.22
2024-03-05T21:42:29.973Z,99840.00
2024-03-05T21:44:56.886Z,99822.00
2024-03-05T21:47:23.919Z,99807.09
2024-03-05T21:49:51.247Z,99829.97
2024-03-05T21:52:18.247Z,99822.19
2024-03-05T21:54:45.234Z,99828.03
2024-03-05T21:57:12.157Z,99833.88
2024-03-05T21:59:39.183Z,99839.44
2024-03-05T22:02:06.558Z,99836.44
2024-03-05T22:04:33.709Z,99846.97
2024-03-05T22:07:00.577Z,99930.44
2024-03-05T22:09:27.525Z,99817.88
2024-03-05T22:11:54.673Z,99854.00
2024-03-05T22:14:22.594Z,99852.16
2024-03-05T22:16:49.709Z,99851.97
2024-03-05T22:19:16.645Z,99840.28
2024-03-05T22:21:43.574Z,99853.56
2024-03-05T22:24:10.478Z,99873.50
2024-03-05T22:26:38.126Z,99838.22
2024-03-05T22:29:05.136Z,99843.06
2024-03-05T22:31:32.115Z,99859.28
2024-03-05T22:33:59.226Z,99852.84
2024-03-05T22:36:26.193Z,99863.97
2024-03-05T22:38:53.233Z,99830.56
2024-03-05T22:41:20.352Z,99853.59
2024-03-05T22:43:47.373Z,99840.59
2024-03-05T22:46:14.288Z,99838.97
2024-03-05T22:48:41.671Z,99836.03
2024-03-05T22:51:08.626Z,99892.66
2024-03-05T22:53:35.992Z,99836.97
2024-03-05T22:56:03.030Z,99850.66
2024-03-05T22:58:30.078Z,99837.63
2024-03-05T23:00:57.011Z,99852.69
2024-03-05T23:03:23.995Z,99859.16
2024-03-05T23:05:50.909Z,99850.88
2024-03-05T23:08:17.840Z,99848.69
2024-03-05T23:10:44.894Z,99823.69
2024-03-05T23:13:11.855Z,99828.59
2024-03-05T23:15:38.783Z,99857.16
2024-03-05T23:18:06.027Z,99842.53
2024-03-05T23:20:32.972Z,99827.09
2024-03-05T23:22:59.911Z,99844.22
2024-03-05T23:25:27.054Z,99820.00
2024-03-05T23:27:54.316Z,99842.19
2024-03-05T23:30:21.512Z,99822.34
2024-03-05T23:32:48.818Z,99837.63
2024-03-05T23:35:16.005Z,99854.84
2024-03-05T23:37:43.147Z,99845.13
2024-03-05T23:40:10.822Z,99838.22
2024-03-05T23:42:38.536Z,99859.69
2024-03-05T23:45:05.750Z,99830.97
2024-03-05T23:47:33.353Z,99826.16
2024-03-05T23:50:01.637Z,99839.09
2024-03-05T23:52:29.073Z,99832.22
2024-03-05T23:54:59.970Z,99813.84
2024-03-05T23:57:29.325Z,99838.41
2024-03-05T23:59:56.341Z,99840.28
